sensor_id;sensor_type;location;lat;lon;timestamp;P1;durP1;ratioP1;P2;durP2;ratioP2
75620;SDS011;64574;48.506;-2.750;2023-12-20T00:00:51;6.55;;;1.23;;
75620;SDS011;64574;48.506;-2.750;2023-12-20T00:03:17;5.63;;;1.08;;
75620;SDS011;64574;48.506;-2.750;2023-12-20T00:05:43;6.07;;;1.35;;
75620;SDS011;64574;48.506;-2.750;2023-12-20T00:08:08;7.90;;;1.38;;
75620;SDS011;64574;48.506;-2.750;2023-12-20T00:10:34;8.55;;;1.25;;
75620;SDS011;64574;48.506;-2.750;2023-12-20T00:13:00;8.10;;;1.23;;
75620;SDS011;64574;48.506;-2.750;2023-12-20T00:15:25;4.90;;;1.00;;
75620;SDS011;64574;48.506;-2.750;2023-12-20T00:17:51;7.68;;;1.35;;
75620;SDS011;64574;48.506;-2.750;2023-12-20T00:20:16;4.10;;;1.23;;
75620;SDS011;64574;48.506;-2.750;2023-12-20T00:22:42;5.55;;;1.40;;
75620;SDS011;64574;48.506;-2.750;2023-12-20T00:25:08;5.13;;;1.42;;
75620;SDS011;64574;48.506;-2.750;2023-12-20T00:27:33;5.82;;;1.00;;
75620;SDS011;64574;48.506;-2.750;2023-12-20T00:29:59;8.35;;;1.17;;
75620;SDS011;64574;48.506;-2.750;2023-12-20T00:56:42;4.75;;;1.13;;
75620;SDS011;64574;48.506;-2.750;2023-12-20T00:59:08;3.67;;;1.10;;
75620;SDS011;64574;48.506;-2.750;2023-12-20T01:01:34;5.47;;;0.82;;
75620;SDS011;64574;48.506;-2.750;2023-12-20T01:03:59;7.40;;;1.20;;
75620;SDS011;64574;48.506;-2.750;2023-12-20T01:06:25;3.70;;;0.85;;
75620;SDS011;64574;48.506;-2.750;2023-12-20T01:08:51;7.13;;;1.13;;
75620;SDS011;64574;48.506;-2.750;2023-12-20T01:11:16;8.18;;;1.17;;
75620;SDS011;64574;48.506;-2.750;2023-12-20T01:13:42;4.93;;;0.82;;
75620;SDS011;64574;48.506;-2.750;2023-12-20T01:16:10;7.53;;;0.73;;
75620;SDS011;64574;48.506;-2.750;2023-12-20T01:18:36;5.38;;;0.90;;
75620;SDS011;64574;48.506;-2.750;2023-12-20T01:21:02;4.57;;;0.80;;
75620;SDS011;64574;48.506;-2.750;2023-12-20T01:23:28;4.90;;;0.90;;
75620;SDS011;64574;48.506;-2.750;2023-12-20T01:25:54;4.47;;;0.93;;
75620;SDS011;64574;48.506;-2.750;2023-12-20T01:28:20;5.57;;;0.80;;
75620;SDS011;64574;48.506;-2.750;2023-12-20T01:30:45;5.22;;;0.90;;
75620;SDS011;64574;48.506;-2.750;2023-12-20T01:33:11;3.80;;;0.65;;
75620;SDS011;64574;48.506;-2.750;2023-12-20T01:35:37;4.75;;;0.77;;
75620;SDS011;64574;48.506;-2.750;2023-12-20T01:38:02;3.80;;;0.80;;
75620;SDS011;64574;48.506;-2.750;2023-12-20T01:40:28;6.57;;;0.90;;
75620;SDS011;64574;48.506;-2.750;2023-12-20T01:45:37;6.40;;;1.00;;
75620;SDS011;64574;48.506;-2.750;2023-12-20T01:48:03;5.30;;;0.75;;
75620;SDS011;64574;48.506;-2.750;2023-12-20T01:50:30;6.03;;;0.60;;
75620;SDS011;64574;48.506;-2.750;2023-12-20T01:55:24;3.05;;;0.55;;
75620;SDS011;64574;48.506;-2.750;2023-12-20T01:57:52;4.38;;;0.68;;
75620;SDS011;64574;48.506;-2.750;2023-12-20T02:00:18;7.13;;;1.20;;
75620;SDS011;64574;48.506;-2.750;2023-12-20T02:02:48;7.82;;;1.08;;
75620;SDS011;64574;48.506;-2.750;2023-12-20T02:05:15;5.50;;;0.90;;
75620;SDS011;64574;48.506;-2.750;2023-12-20T02:07:42;6.65;;;0.85;;
75620;SDS011;64574;48.506;-2.750;2023-12-20T02:10:07;4.43;;;0.93;;
75620;SDS011;64574;48.506;-2.750;2023-12-20T02:12:33;4.97;;;1.10;;
75620;SDS011;64574;48.506;-2.750;2023-12-20T02:14:59;6.60;;;1.00;;
75620;SDS011;64574;48.506;-2.750;2023-12-20T02:17:25;5.35;;;0.68;;
75620;SDS011;64574;48.506;-2.750;2023-12-20T02:19:51;4.30;;;0.80;;
75620;SDS011;64574;48.506;-2.750;2023-12-20T02:22:17;3.67;;;0.50;;
75620;SDS011;64574;48.506;-2.750;2023-12-20T02:24:42;4.57;;;0.70;;
75620;SDS011;64574;48.506;-2.750;2023-12-20T02:27:08;5.70;;;0.65;;
75620;SDS011;64574;48.506;-2.750;2023-12-20T02:29:34;5.65;;;0.98;;
75620;SDS011;64574;48.506;-2.750;2023-12-20T02:32:00;4.93;;;0.85;;
75620;SDS011;64574;48.506;-2.750;2023-12-20T02:34:27;4.53;;;0.80;;
75620;SDS011;64574;48.506;-2.750;2023-12-20T02:36:52;3.95;;;0.82;;
75620;SDS011;64574;48.506;-2.750;2023-12-20T02:39:19;7.80;;;0.98;;
75620;SDS011;64574;48.506;-2.750;2023-12-20T02:41:45;4.60;;;0.80;;
75620;SDS011;64574;48.506;-2.750;2023-12-20T02:44:10;3.28;;;0.60;;
75620;SDS011;64574;48.506;-2.750;2023-12-20T02:46:36;3.47;;;0.50;;
75620;SDS011;64574;48.506;-2.750;2023-12-20T02:49:01;3.95;;;0.68;;
75620;SDS011;64574;48.506;-2.750;2023-12-20T02:51:27;5.95;;;0.60;;
75620;SDS011;64574;48.506;-2.750;2023-12-20T02:53:53;3.70;;;0.60;;
75620;SDS011;64574;48.506;-2.750;2023-12-20T02:56:18;2.72;;;0.60;;
75620;SDS011;64574;48.506;-2.750;2023-12-20T02:58:44;4.88;;;0.60;;
75620;SDS011;64574;48.506;-2.750;2023-12-20T03:01:09;3.60;;;0.50;;
75620;SDS011;64574;48.506;-2.750;2023-12-20T03:03:35;2.00;;;0.43;;
75620;SDS011;64574;48.506;-2.750;2023-12-20T03:06:01;6.80;;;0.65;;
75620;SDS011;64574;48.506;-2.750;2023-12-20T03:08:26;4.03;;;0.40;;
75620;SDS011;64574;48.506;-2.750;2023-12-20T03:10:52;3.42;;;0.73;;
75620;SDS011;64574;48.506;-2.750;2023-12-20T03:13:18;3.13;;;0.73;;
75620;SDS011;64574;48.506;-2.750;2023-12-20T03:15:44;1.55;;;0.32;;
75620;SDS011;64574;48.506;-2.750;2023-12-20T03:18:10;2.35;;;0.60;;
75620;SDS011;64574;48.506;-2.750;2023-12-20T03:20:36;4.90;;;0.90;;
75620;SDS011;64574;48.506;-2.750;2023-12-20T03:23:01;4.28;;;0.90;;
75620;SDS011;64574;48.506;-2.750;2023-12-20T03:25:27;5.80;;;0.60;;
75620;SDS011;64574;48.506;-2.750;2023-12-20T03:27:53;2.38;;;0.60;;
75620;SDS011;64574;48.506;-2.750;2023-12-20T03:30:19;6.03;;;0.80;;
75620;SDS011;64574;48.506;-2.750;2023-12-20T03:32:45;5.95;;;0.95;;
75620;SDS011;64574;48.506;-2.750;2023-12-20T03:35:10;7.03;;;0.73;;
75620;SDS011;64574;48.506;-2.750;2023-12-20T03:37:36;7.03;;;0.85;;
75620;SDS011;64574;48.506;-2.750;2023-12-20T03:40:02;4.10;;;0.65;;
75620;SDS011;64574;48.506;-2.750;2023-12-20T03:42:28;2.83;;;0.68;;
75620;SDS011;64574;48.506;-2.750;2023-12-20T03:44:54;4.47;;;0.70;;
75620;SDS011;64574;48.506;-2.750;2023-12-20T03:47:19;5.18;;;0.60;;
75620;SDS011;64574;48.506;-2.750;2023-12-20T03:49:45;7.05;;;0.75;;
75620;SDS011;64574;48.506;-2.750;2023-12-20T03:52:11;5.53;;;0.73;;
75620;SDS011;64574;48.506;-2.750;2023-12-20T03:54:37;4.07;;;0.57;;
75620;SDS011;64574;48.506;-2.750;2023-12-20T03:57:03;6.57;;;0.80;;
75620;SDS011;64574;48.506;-2.750;2023-12-20T03:59:29;3.28;;;0.57;;
75620;SDS011;64574;48.506;-2.750;2023-12-20T04:01:55;2.97;;;0.88;;
75620;SDS011;64574;48.506;-2.750;2023-12-20T04:04:20;4.55;;;0.60;;
75620;SDS011;64574;48.506;-2.750;2023-12-20T04:06:46;5.85;;;0.60;;
75620;SDS011;64574;48.506;-2.750;2023-12-20T04:09:12;4.55;;;0.90;;
75620;SDS011;64574;48.506;-2.750;2023-12-20T04:11:38;8.52;;;0.82;;
75620;SDS011;64574;48.506;-2.750;2023-12-20T04:14:03;7.00;;;0.88;;
75620;SDS011;64574;48.506;-2.750;2023-12-20T04:16:34;4.68;;;0.93;;
75620;SDS011;64574;48.506;-2.750;2023-12-20T04:18:59;9.05;;;1.38;;
75620;SDS011;64574;48.506;-2.750;2023-12-20T04:21:26;12.43;;;1.23;;
75620;SDS011;64574;48.506;-2.750;2023-12-20T04:23:51;9.05;;;1.60;;
75620;SDS011;64574;48.506;-2.750;2023-12-20T04:26:17;6.20;;;0.90;;
75620;SDS011;64574;48.506;-2.750;2023-12-20T04:28:42;7.15;;;1.10;;
75620;SDS011;64574;48.506;-2.750;2023-12-20T04:31:08;7.30;;;1.05;;
75620;SDS011;64574;48.506;-2.750;2023-12-20T04:33:33;4.55;;;1.00;;
75620;SDS011;64574;48.506;-2.750;2023-12-20T04:35:59;9.65;;;1.40;;
75620;SDS011;64574;48.506;-2.750;2023-12-20T04:38:25;8.20;;;0.80;;
75620;SDS011;64574;48.506;-2.750;2023-12-20T04:40:51;8.30;;;1.00;;
75620;SDS011;64574;48.506;-2.750;2023-12-20T04:43:17;8.80;;;1.15;;
75620;SDS011;64574;48.506;-2.750;2023-12-20T04:45:42;7.28;;;1.48;;
75620;SDS011;64574;48.506;-2.750;2023-12-20T04:48:08;5.97;;;0.98;;
75620;SDS011;64574;48.506;-2.750;2023-12-20T04:50:34;7.45;;;1.15;;
75620;SDS011;64574;48.506;-2.750;2023-12-20T04:52:59;7.88;;;1.50;;
75620;SDS011;64574;48.506;-2.750;2023-12-20T04:55:25;7.88;;;0.85;;
75620;SDS011;64574;48.506;-2.750;2023-12-20T04:57:51;10.35;;;1.40;;
75620;SDS011;64574;48.506;-2.750;2023-12-20T05:00:17;9.25;;;1.23;;
75620;SDS011;64574;48.506;-2.750;2023-12-20T05:02:42;8.43;;;1.15;;
75620;SDS011;64574;48.506;-2.750;2023-12-20T05:05:08;7.97;;;1.17;;
75620;SDS011;64574;48.506;-2.750;2023-12-20T05:07:34;7.60;;;1.48;;
75620;SDS011;64574;48.506;-2.750;2023-12-20T05:10:00;11.67;;;2.10;;
75620;SDS011;64574;48.506;-2.750;2023-12-20T05:12:25;12.00;;;1.83;;
75620;SDS011;64574;48.506;-2.750;2023-12-20T05:14:51;10.07;;;1.85;;
75620;SDS011;64574;48.506;-2.750;2023-12-20T05:17:17;8.68;;;2.30;;
75620;SDS011;64574;48.506;-2.750;2023-12-20T05:19:45;10.15;;;1.20;;
75620;SDS011;64574;48.506;-2.750;2023-12-20T05:22:10;9.02;;;1.45;;
75620;SDS011;64574;48.506;-2.750;2023-12-20T05:27:02;7.47;;;1.02;;
75620;SDS011;64574;48.506;-2.750;2023-12-20T05:29:28;7.93;;;1.35;;
75620;SDS011;64574;48.506;-2.750;2023-12-20T05:31:53;8.13;;;1.30;;
75620;SDS011;64574;48.506;-2.750;2023-12-20T05:34:19;6.88;;;0.98;;
75620;SDS011;64574;48.506;-2.750;2023-12-20T05:36:45;9.68;;;1.60;;
75620;SDS011;64574;48.506;-2.750;2023-12-20T05:39:11;9.48;;;1.65;;
75620;SDS011;64574;48.506;-2.750;2023-12-20T05:41:36;10.80;;;1.97;;
75620;SDS011;64574;48.506;-2.750;2023-12-20T05:44:03;12.32;;;1.92;;
75620;SDS011;64574;48.506;-2.750;2023-12-20T05:46:28;11.17;;;1.63;;
75620;SDS011;64574;48.506;-2.750;2023-12-20T05:48:54;8.37;;;1.80;;
75620;SDS011;64574;48.506;-2.750;2023-12-20T05:51:20;9.88;;;1.83;;
75620;SDS011;64574;48.506;-2.750;2023-12-20T05:53:45;12.53;;;1.93;;
75620;SDS011;64574;48.506;-2.750;2023-12-20T05:56:11;10.63;;;1.77;;
75620;SDS011;64574;48.506;-2.750;2023-12-20T05:58:38;9.85;;;1.80;;
75620;SDS011;64574;48.506;-2.750;2023-12-20T06:01:04;11.83;;;1.80;;
75620;SDS011;64574;48.506;-2.750;2023-12-20T06:03:30;7.83;;;1.63;;
75620;SDS011;64574;48.506;-2.750;2023-12-20T06:05:56;11.97;;;2.17;;
75620;SDS011;64574;48.506;-2.750;2023-12-20T06:08:22;11.40;;;2.42;;
75620;SDS011;64574;48.506;-2.750;2023-12-20T06:10:48;11.50;;;2.83;;
75620;SDS011;64574;48.506;-2.750;2023-12-20T06:13:13;11.88;;;2.92;;
75620;SDS011;64574;48.506;-2.750;2023-12-20T06:15:39;10.47;;;2.93;;
75620;SDS011;64574;48.506;-2.750;2023-12-20T06:18:05;10.75;;;2.50;;
75620;SDS011;64574;48.506;-2.750;2023-12-20T06:20:32;8.35;;;2.20;;
75620;SDS011;64574;48.506;-2.750;2023-12-20T06:22:57;13.60;;;2.45;;
75620;SDS011;64574;48.506;-2.750;2023-12-20T06:25:23;9.97;;;2.57;;
75620;SDS011;64574;48.506;-2.750;2023-12-20T06:27:49;11.37;;;2.90;;
75620;SDS011;64574;48.506;-2.750;2023-12-20T06:30:15;10.77;;;2.65;;
75620;SDS011;64574;48.506;-2.750;2023-12-20T06:32:41;11.70;;;2.37;;
75620;SDS011;64574;48.506;-2.750;2023-12-20T06:35:08;10.97;;;2.37;;
75620;SDS011;64574;48.506;-2.750;2023-12-20T06:37:34;11.30;;;2.47;;
75620;SDS011;64574;48.506;-2.750;2023-12-20T06:40:00;10.95;;;2.28;;
75620;SDS011;64574;48.506;-2.750;2023-12-20T06:42:26;10.15;;;2.40;;
75620;SDS011;64574;48.506;-2.750;2023-12-20T06:44:52;11.40;;;2.30;;
75620;SDS011;64574;48.506;-2.750;2023-12-20T06:47:17;9.55;;;2.03;;
75620;SDS011;64574;48.506;-2.750;2023-12-20T06:49:43;11.17;;;2.47;;
75620;SDS011;64574;48.506;-2.750;2023-12-20T06:52:09;10.18;;;2.30;;
75620;SDS011;64574;48.506;-2.750;2023-12-20T06:54:35;14.73;;;3.45;;
75620;SDS011;64574;48.506;-2.750;2023-12-20T12:15:33;7.85;;;1.70;;
75620;SDS011;64574;48.506;-2.750;2023-12-20T12:17:58;7.25;;;1.35;;
75620;SDS011;64574;48.506;-2.750;2023-12-20T12:20:24;9.50;;;1.33;;
75620;SDS011;64574;48.506;-2.750;2023-12-20T12:23:03;6.68;;;1.17;;
75620;SDS011;64574;48.506;-2.750;2023-12-20T12:25:29;6.53;;;1.25;;
75620;SDS011;64574;48.506;-2.750;2023-12-20T12:27:56;9.07;;;2.20;;
75620;SDS011;64574;48.506;-2.750;2023-12-20T14:20:00;5.68;;;0.73;;
75620;SDS011;64574;48.506;-2.750;2023-12-20T14:22:25;4.05;;;0.70;;
75620;SDS011;64574;48.506;-2.750;2023-12-20T14:24:51;5.38;;;0.68;;
75620;SDS011;64574;48.506;-2.750;2023-12-20T14:27:17;3.45;;;0.50;;
75620;SDS011;64574;48.506;-2.750;2023-12-20T14:29:45;6.28;;;0.98;;
75620;SDS011;64574;48.506;-2.750;2023-12-20T14:32:10;5.47;;;0.80;;
75620;SDS011;64574;48.506;-2.750;2023-12-20T14:34:39;4.53;;;1.00;;
75620;SDS011;64574;48.506;-2.750;2023-12-20T14:37:04;4.83;;;0.90;;
75620;SDS011;64574;48.506;-2.750;2023-12-20T14:39:30;4.70;;;0.87;;
75620;SDS011;64574;48.506;-2.750;2023-12-20T14:41:56;4.93;;;0.93;;
75620;SDS011;64574;48.506;-2.750;2023-12-20T14:44:21;5.45;;;1.00;;
75620;SDS011;64574;48.506;-2.750;2023-12-20T14:46:47;4.87;;;1.00;;
75620;SDS011;64574;48.506;-2.750;2023-12-20T14:49:13;6.55;;;1.20;;
75620;SDS011;64574;48.506;-2.750;2023-12-20T14:51:39;5.18;;;1.02;;
75620;SDS011;64574;48.506;-2.750;2023-12-20T14:54:05;5.20;;;1.10;;
75620;SDS011;64574;48.506;-2.750;2023-12-20T14:56:35;5.00;;;1.00;;
75620;SDS011;64574;48.506;-2.750;2023-12-20T14:59:00;5.78;;;1.27;;
75620;SDS011;64574;48.506;-2.750;2023-12-20T15:01:26;7.70;;;1.10;;
75620;SDS011;64574;48.506;-2.750;2023-12-20T15:03:51;5.03;;;0.90;;
75620;SDS011;64574;48.506;-2.750;2023-12-20T15:06:17;3.80;;;0.90;;
75620;SDS011;64574;48.506;-2.750;2023-12-20T15:08:45;4.85;;;1.00;;
75620;SDS011;64574;48.506;-2.750;2023-12-20T15:11:11;3.55;;;0.88;;
75620;SDS011;64574;48.506;-2.750;2023-12-20T15:13:37;4.55;;;0.82;;
75620;SDS011;64574;48.506;-2.750;2023-12-20T15:16:02;3.03;;;0.70;;
75620;SDS011;64574;48.506;-2.750;2023-12-20T15:18:30;3.33;;;0.90;;
75620;SDS011;64574;48.506;-2.750;2023-12-20T15:20:56;4.28;;;0.80;;
75620;SDS011;64574;48.506;-2.750;2023-12-20T15:23:22;4.22;;;1.10;;
75620;SDS011;64574;48.506;-2.750;2023-12-20T15:25:51;5.35;;;0.93;;
75620;SDS011;64574;48.506;-2.750;2023-12-20T15:28:17;5.60;;;1.00;;
75620;SDS011;64574;48.506;-2.750;2023-12-20T15:30:43;4.10;;;0.88;;
75620;SDS011;64574;48.506;-2.750;2023-12-20T15:33:08;4.75;;;0.88;;
75620;SDS011;64574;48.506;-2.750;2023-12-20T15:35:34;4.10;;;0.90;;
75620;SDS011;64574;48.506;-2.750;2023-12-20T15:37:59;5.87;;;1.30;;
75620;SDS011;64574;48.506;-2.750;2023-12-20T15:40:26;5.50;;;0.90;;
75620;SDS011;64574;48.506;-2.750;2023-12-20T15:42:51;4.30;;;1.05;;
75620;SDS011;64574;48.506;-2.750;2023-12-20T15:45:18;3.50;;;1.02;;
75620;SDS011;64574;48.506;-2.750;2023-12-20T15:47:43;4.40;;;1.02;;
75620;SDS011;64574;48.506;-2.750;2023-12-20T15:50:11;3.63;;;0.90;;
75620;SDS011;64574;48.506;-2.750;2023-12-20T15:52:37;5.50;;;1.20;;
75620;SDS011;64574;48.506;-2.750;2023-12-20T15:55:03;4.85;;;1.02;;
75620;SDS011;64574;48.506;-2.750;2023-12-20T15:57:29;5.55;;;1.13;;
75620;SDS011;64574;48.506;-2.750;2023-12-20T15:59:54;6.00;;;1.17;;
75620;SDS011;64574;48.506;-2.750;2023-12-20T16:02:20;5.55;;;1.02;;
75620;SDS011;64574;48.506;-2.750;2023-12-20T16:04:47;4.32;;;1.20;;
75620;SDS011;64574;48.506;-2.750;2023-12-20T16:07:13;4.90;;;1.20;;
75620;SDS011;64574;48.506;-2.750;2023-12-20T16:09:38;5.75;;;1.45;;
75620;SDS011;64574;48.506;-2.750;2023-12-20T16:12:04;5.17;;;1.27;;
75620;SDS011;64574;48.506;-2.750;2023-12-20T16:14:30;5.40;;;1.30;;
75620;SDS011;64574;48.506;-2.750;2023-12-20T16:16:55;8.27;;;1.38;;
75620;SDS011;64574;48.506;-2.750;2023-12-20T16:19:21;7.07;;;1.47;;
75620;SDS011;64574;48.506;-2.750;2023-12-20T16:21:47;6.20;;;1.20;;
75620;SDS011;64574;48.506;-2.750;2023-12-20T16:24:12;8.75;;;1.30;;
75620;SDS011;64574;48.506;-2.750;2023-12-20T16:26:38;7.10;;;1.23;;
75620;SDS011;64574;48.506;-2.750;2023-12-20T16:29:04;4.93;;;1.13;;
75620;SDS011;64574;48.506;-2.750;2023-12-20T16:31:29;3.97;;;1.00;;
75620;SDS011;64574;48.506;-2.750;2023-12-20T16:33:55;6.00;;;1.20;;
75620;SDS011;64574;48.506;-2.750;2023-12-20T16:36:20;8.40;;;1.50;;
75620;SDS011;64574;48.506;-2.750;2023-12-20T16:38:46;6.57;;;1.40;;
75620;SDS011;64574;48.506;-2.750;2023-12-20T16:41:12;6.67;;;1.73;;
75620;SDS011;64574;48.506;-2.750;2023-12-20T16:43:38;3.70;;;1.00;;
75620;SDS011;64574;48.506;-2.750;2023-12-20T16:46:03;5.22;;;1.10;;
75620;SDS011;64574;48.506;-2.750;2023-12-20T16:48:29;3.93;;;1.20;;
75620;SDS011;64574;48.506;-2.750;2023-12-20T16:50:55;6.03;;;1.37;;
75620;SDS011;64574;48.506;-2.750;2023-12-20T16:53:20;5.20;;;1.20;;
75620;SDS011;64574;48.506;-2.750;2023-12-20T16:55:46;4.80;;;1.67;;
75620;SDS011;64574;48.506;-2.750;2023-12-20T16:58:12;5.32;;;1.30;;
75620;SDS011;64574;48.506;-2.750;2023-12-20T17:00:38;6.00;;;1.40;;
75620;SDS011;64574;48.506;-2.750;2023-12-20T17:03:07;7.68;;;1.85;;
75620;SDS011;64574;48.506;-2.750;2023-12-20T17:05:32;9.02;;;2.00;;
75620;SDS011;64574;48.506;-2.750;2023-12-20T17:07:58;7.57;;;2.08;;
75620;SDS011;64574;48.506;-2.750;2023-12-20T17:10:24;7.57;;;1.60;;
75620;SDS011;64574;48.506;-2.750;2023-12-20T17:12:50;8.07;;;1.93;;
75620;SDS011;64574;48.506;-2.750;2023-12-20T17:15:15;7.53;;;1.75;;
75620;SDS011;64574;48.506;-2.750;2023-12-20T17:17:41;9.33;;;1.80;;
75620;SDS011;64574;48.506;-2.750;2023-12-20T17:20:07;9.70;;;2.10;;
75620;SDS011;64574;48.506;-2.750;2023-12-20T17:22:33;7.27;;;1.73;;
75620;SDS011;64574;48.506;-2.750;2023-12-20T17:24:58;10.20;;;2.43;;
75620;SDS011;64574;48.506;-2.750;2023-12-20T17:27:24;9.80;;;2.20;;
75620;SDS011;64574;48.506;-2.750;2023-12-20T17:29:50;9.73;;;2.53;;
75620;SDS011;64574;48.506;-2.750;2023-12-20T17:32:15;9.68;;;2.33;;
75620;SDS011;64574;48.506;-2.750;2023-12-20T17:34:41;10.30;;;2.30;;
75620;SDS011;64574;48.506;-2.750;2023-12-20T17:37:07;10.17;;;2.53;;
75620;SDS011;64574;48.506;-2.750;2023-12-20T17:39:32;13.30;;;2.70;;
75620;SDS011;64574;48.506;-2.750;2023-12-20T17:41:58;14.77;;;3.13;;
75620;SDS011;64574;48.506;-2.750;2023-12-20T17:44:24;9.67;;;2.60;;
75620;SDS011;64574;48.506;-2.750;2023-12-20T17:46:50;10.53;;;2.30;;
75620;SDS011;64574;48.506;-2.750;2023-12-20T17:49:15;14.15;;;3.38;;
75620;SDS011;64574;48.506;-2.750;2023-12-20T17:51:44;11.48;;;2.47;;
75620;SDS011;64574;48.506;-2.750;2023-12-20T17:54:10;12.88;;;2.80;;
75620;SDS011;64574;48.506;-2.750;2023-12-20T17:56:35;10.23;;;2.57;;
75620;SDS011;64574;48.506;-2.750;2023-12-20T17:59:01;12.52;;;2.88;;
75620;SDS011;64574;48.506;-2.750;2023-12-20T18:01:27;13.13;;;3.07;;
75620;SDS011;64574;48.506;-2.750;2023-12-20T18:03:52;12.50;;;2.77;;
75620;SDS011;64574;48.506;-2.750;2023-12-20T18:06:18;16.77;;;3.58;;
75620;SDS011;64574;48.506;-2.750;2023-12-20T18:08:43;14.87;;;3.03;;
75620;SDS011;64574;48.506;-2.750;2023-12-20T18:11:09;13.53;;;3.20;;
75620;SDS011;64574;48.506;-2.750;2023-12-20T18:13:35;14.32;;;2.95;;
75620;SDS011;64574;48.506;-2.750;2023-12-20T18:16:00;18.90;;;3.70;;
75620;SDS011;64574;48.506;-2.750;2023-12-20T18:18:27;13.45;;;3.00;;
75620;SDS011;64574;48.506;-2.750;2023-12-20T18:20:53;14.88;;;3.15;;
75620;SDS011;64574;48.506;-2.750;2023-12-20T18:23:19;10.95;;;3.17;;
75620;SDS011;64574;48.506;-2.750;2023-12-20T18:25:45;17.60;;;3.63;;
75620;SDS011;64574;48.506;-2.750;2023-12-20T18:28:11;16.13;;;3.80;;
75620;SDS011;64574;48.506;-2.750;2023-12-20T18:30:37;15.73;;;3.30;;
75620;SDS011;64574;48.506;-2.750;2023-12-20T18:33:03;19.97;;;4.07;;
75620;SDS011;64574;48.506;-2.750;2023-12-20T18:35:29;14.32;;;3.45;;
75620;SDS011;64574;48.506;-2.750;2023-12-20T18:37:55;16.60;;;3.50;;
75620;SDS011;64574;48.506;-2.750;2023-12-20T18:40:22;19.02;;;3.67;;
75620;SDS011;64574;48.506;-2.750;2023-12-20T18:42:52;20.25;;;3.80;;
75620;SDS011;64574;48.506;-2.750;2023-12-20T18:45:18;17.65;;;3.80;;
75620;SDS011;64574;48.506;-2.750;2023-12-20T18:47:43;19.33;;;3.73;;
75620;SDS011;64574;48.506;-2.750;2023-12-20T18:50:10;15.18;;;3.60;;
75620;SDS011;64574;48.506;-2.750;2023-12-20T18:52:35;18.02;;;3.85;;
75620;SDS011;64574;48.506;-2.750;2023-12-20T18:55:01;17.20;;;3.73;;
75620;SDS011;64574;48.506;-2.750;2023-12-20T18:57:27;19.77;;;4.35;;
75620;SDS011;64574;48.506;-2.750;2023-12-20T18:59:52;21.02;;;4.30;;
75620;SDS011;64574;48.506;-2.750;2023-12-20T19:02:18;22.10;;;4.10;;
75620;SDS011;64574;48.506;-2.750;2023-12-20T19:04:44;20.33;;;4.30;;
75620;SDS011;64574;48.506;-2.750;2023-12-20T19:07:09;22.48;;;4.70;;
75620;SDS011;64574;48.506;-2.750;2023-12-20T19:09:35;21.90;;;4.40;;
75620;SDS011;64574;48.506;-2.750;2023-12-20T19:12:01;25.67;;;4.70;;
75620;SDS011;64574;48.506;-2.750;2023-12-20T19:14:27;22.03;;;4.27;;
75620;SDS011;64574;48.506;-2.750;2023-12-20T19:16:52;20.20;;;4.53;;
75620;SDS011;64574;48.506;-2.750;2023-12-20T19:19:19;25.40;;;4.82;;
75620;SDS011;64574;48.506;-2.750;2023-12-20T19:21:44;22.10;;;4.63;;
75620;SDS011;64574;48.506;-2.750;2023-12-20T19:24:11;20.42;;;4.68;;
75620;SDS011;64574;48.506;-2.750;2023-12-20T19:26:36;21.63;;;4.68;;
75620;SDS011;64574;48.506;-2.750;2023-12-20T19:29:03;24.20;;;4.53;;
75620;SDS011;64574;48.506;-2.750;2023-12-20T19:31:28;20.27;;;4.47;;
75620;SDS011;64574;48.506;-2.750;2023-12-20T19:33:54;23.93;;;4.43;;
75620;SDS011;64574;48.506;-2.750;2023-12-20T19:36:21;22.10;;;4.50;;
75620;SDS011;64574;48.506;-2.750;2023-12-20T19:38:46;28.73;;;5.32;;
75620;SDS011;64574;48.506;-2.750;2023-12-20T19:41:13;21.83;;;4.70;;
75620;SDS011;64574;48.506;-2.750;2023-12-20T19:43:38;20.33;;;4.50;;
75620;SDS011;64574;48.506;-2.750;2023-12-20T19:46:07;26.90;;;4.57;;
75620;SDS011;64574;48.506;-2.750;2023-12-20T19:48:33;25.17;;;4.95;;
75620;SDS011;64574;48.506;-2.750;2023-12-20T19:50:59;24.10;;;4.73;;
75620;SDS011;64574;48.506;-2.750;2023-12-20T19:53:24;27.60;;;5.35;;
75620;SDS011;64574;48.506;-2.750;2023-12-20T19:55:52;23.35;;;5.00;;
75620;SDS011;64574;48.506;-2.750;2023-12-20T19:58:17;25.13;;;5.13;;
75620;SDS011;64574;48.506;-2.750;2023-12-20T20:00:43;28.07;;;5.57;;
75620;SDS011;64574;48.506;-2.750;2023-12-20T20:03:09;22.33;;;5.43;;
75620;SDS011;64574;48.506;-2.750;2023-12-20T20:05:34;27.75;;;5.30;;
75620;SDS011;64574;48.506;-2.750;2023-12-20T20:08:00;25.60;;;5.40;;
75620;SDS011;64574;48.506;-2.750;2023-12-20T20:10:25;28.47;;;5.80;;
75620;SDS011;64574;48.506;-2.750;2023-12-20T20:12:51;26.40;;;5.20;;
75620;SDS011;64574;48.506;-2.750;2023-12-20T20:15:17;29.07;;;5.60;;
75620;SDS011;64574;48.506;-2.750;2023-12-20T20:17:42;27.23;;;5.65;;
75620;SDS011;64574;48.506;-2.750;2023-12-20T20:20:08;30.92;;;5.82;;
75620;SDS011;64574;48.506;-2.750;2023-12-20T20:22:34;28.88;;;5.78;;
75620;SDS011;64574;48.506;-2.750;2023-12-20T20:25:00;30.05;;;6.18;;
75620;SDS011;64574;48.506;-2.750;2023-12-20T20:27:26;29.37;;;5.90;;
75620;SDS011;64574;48.506;-2.750;2023-12-20T20:29:51;26.40;;;5.70;;
75620;SDS011;64574;48.506;-2.750;2023-12-20T20:32:17;33.35;;;6.00;;
75620;SDS011;64574;48.506;-2.750;2023-12-20T20:34:43;33.03;;;6.03;;
75620;SDS011;64574;48.506;-2.750;2023-12-20T20:37:09;30.83;;;5.78;;
75620;SDS011;64574;48.506;-2.750;2023-12-20T20:39:35;32.03;;;5.82;;
75620;SDS011;64574;48.506;-2.750;2023-12-20T20:42:01;26.27;;;5.68;;
75620;SDS011;64574;48.506;-2.750;2023-12-20T20:44:27;24.92;;;5.38;;
75620;SDS011;64574;48.506;-2.750;2023-12-20T20:46:53;32.85;;;6.10;;
75620;SDS011;64574;48.506;-2.750;2023-12-20T20:49:19;32.05;;;6.85;;
75620;SDS011;64574;48.506;-2.750;2023-12-20T20:51:45;28.52;;;5.70;;
75620;SDS011;64574;48.506;-2.750;2023-12-20T20:54:10;32.87;;;6.40;;
75620;SDS011;64574;48.506;-2.750;2023-12-20T20:56:36;25.13;;;5.43;;
75620;SDS011;64574;48.506;-2.750;2023-12-20T20:59:02;33.10;;;6.30;;
75620;SDS011;64574;48.506;-2.750;2023-12-20T21:01:28;33.42;;;5.93;;
75620;SDS011;64574;48.506;-2.750;2023-12-20T21:03:56;27.65;;;5.72;;
75620;SDS011;64574;48.506;-2.750;2023-12-20T21:06:22;29.73;;;6.00;;
75620;SDS011;64574;48.506;-2.750;2023-12-20T21:08:48;28.47;;;5.93;;
75620;SDS011;64574;48.506;-2.750;2023-12-20T21:11:13;30.73;;;5.73;;
75620;SDS011;64574;48.506;-2.750;2023-12-20T21:13:43;29.55;;;5.88;;
75620;SDS011;64574;48.506;-2.750;2023-12-20T21:16:12;27.95;;;5.68;;
75620;SDS011;64574;48.506;-2.750;2023-12-20T21:18:41;23.90;;;4.35;;
75620;SDS011;64574;48.506;-2.750;2023-12-20T21:21:09;28.70;;;5.40;;
75620;SDS011;64574;48.506;-2.750;2023-12-20T21:23:35;27.67;;;5.45;;
75620;SDS011;64574;48.506;-2.750;2023-12-20T21:26:01;31.27;;;5.73;;
75620;SDS011;64574;48.506;-2.750;2023-12-20T21:28:30;23.60;;;4.90;;
75620;SDS011;64574;48.506;-2.750;2023-12-20T21:30:57;27.10;;;5.10;;
75620;SDS011;64574;48.506;-2.750;2023-12-20T21:33:22;26.07;;;5.17;;
75620;SDS011;64574;48.506;-2.750;2023-12-20T21:35:48;26.05;;;5.10;;
75620;SDS011;64574;48.506;-2.750;2023-12-20T21:38:14;21.80;;;4.90;;
75620;SDS011;64574;48.506;-2.750;2023-12-20T21:40:39;26.17;;;5.53;;
75620;SDS011;64574;48.506;-2.750;2023-12-20T21:43:05;24.48;;;5.28;;
75620;SDS011;64574;48.506;-2.750;2023-12-20T21:45:30;25.70;;;5.13;;
75620;SDS011;64574;48.506;-2.750;2023-12-20T21:47:56;22.90;;;5.05;;
75620;SDS011;64574;48.506;-2.750;2023-12-20T21:50:22;24.77;;;5.13;;
75620;SDS011;64574;48.506;-2.750;2023-12-20T21:52:48;25.23;;;4.87;;
75620;SDS011;64574;48.506;-2.750;2023-12-20T21:55:13;24.45;;;4.30;;
75620;SDS011;64574;48.506;-2.750;2023-12-20T21:57:39;24.25;;;4.97;;
75620;SDS011;64574;48.506;-2.750;2023-12-20T22:00:05;22.27;;;4.65;;